sensor_id;sensor_type;location;lat;lon;timestamp;pressure;altitude;pressure_sealevel;temperature;humidity
26823;BME280;14852;51.910;8.878;2023-06-22T00:00:57;100062.56;;;21.89;54.61
26823;BME280;14852;51.910;8.878;2023-06-22T00:03:24;100063.72;;;21.77;55.00
26823;BME280;14852;51.910;8.878;2023-06-22T00:05:51;100064.00;;;21.74;55.09
26823;BME280;14852;51.910;8.878;2023-06-22T00:08:17;100059.53;;;21.75;54.86
26823;BME280;14852;51.910;8.878;2023-06-22T00:10:44;100060.78;;;21.80;54.96
26823;BME280;14852;51.910;8.878;2023-06-22T00:13:10;100051.13;;;21.89;54.35
26823;BME280;14852;51.910;8.878;2023-06-22T00:15:38;100045.25;;;21.95;54.62
26823;BME280;14852;51.910;8.878;2023-06-22T00:18:06;100045.38;;;21.93;54.22
26823;BME280;14852;51.910;8.878;2023-06-22T00:20:32;100036.53;;;21.85;54.58
26823;BME280;14852;51.910;8.878;2023-06-22T00:22:59;100034.44;;;21.88;54.61
26823;BME280;14852;51.910;8.878;2023-06-22T00:25:25;100032.03;;;21.95;54.92
26823;BME280;14852;51.910;8.878;2023-06-22T00:27:51;100043.59;;;22.03;54.79
26823;BME280;14852;51.910;8.878;2023-06-22T00:30:18;100036.19;;;22.07;54.36
26823;BME280;14852;51.910;8.878;2023-06-22T00:32:45;100031.84;;;22.06;54.56
26823;BME280;14852;51.910;8.878;2023-06-22T00:35:13;100038.44;;;22.02;54.80
26823;BME280;14852;51.910;8.878;2023-06-22T00:37:39;100038.16;;;21.95;55.23
26823;BME280;14852;51.910;8.878;2023-06-22T00:40:11;100035.78;;;21.92;54.89
26823;BME280;14852;51.910;8.878;2023-06-22T00:42:41;100028.16;;;21.89;55.09
26823;BME280;14852;51.910;8.878;2023-06-22T00:45:08;100025.50;;;21.89;55.44
26823;BME280;14852;51.910;8.878;2023-06-22T00:47:37;100018.94;;;21.93;55.01
26823;BME280;14852;51.910;8.878;2023-06-22T00:50:06;100012.16;;;21.91;55.60
26823;BME280;14852;51.910;8.878;2023-06-22T00:52:32;99999.59;;;21.93;55.35
26823;BME280;14852;51.910;8.878;2023-06-22T00:55:02;99992.78;;;22.00;55.50
26823;BME280;14852;51.910;8.878;2023-06-22T00:57:28;99993.69;;;22.09;55.06
26823;BME280;14852;51.910;8.878;2023-06-22T00:59:55;99996.41;;;22.17;54.88
26823;BME280;14852;51.910;8.878;2023-06-22T01:02:21;100000.03;;;22.16;55.01
26823;BME280;14852;51.910;8.878;2023-06-22T01:04:47;99998.28;;;22.07;55.05
26823;BME280;14852;51.910;8.878;2023-06-22T01:10:24;99996.28;;;21.91;55.58
26823;BME280;14852;51.910;8.878;2023-06-22T01:13:13;99993.66;;;21.81;55.69
26823;BME280;14852;51.910;8.878;2023-06-22T01:16:05;99999.94;;;21.80;55.76
26823;BME280;14852;51.910;8.878;2023-06-22T01:18:35;99998.47;;;21.68;56.21
26823;BME280;14852;51.910;8.878;2023-06-22T01:21:04;99996.84;;;21.57;56.30
26823;BME280;14852;51.910;8.878;2023-06-22T01:24:10;99997.50;;;21.59;55.99
26823;BME280;14852;51.910;8.878;2023-06-22T01:26:57;99993.59;;;21.63;56.26
26823;BME280;14852;51.910;8.878;2023-06-22T01:29:27;99996.19;;;21.73;56.46
26823;BME280;14852;51.910;8.878;2023-06-22T01:31:56;100001.44;;;21.83;56.27
26823;BME280;14852;51.910;8.878;2023-06-22T01:34:23;100001.56;;;21.91;56.21
26823;BME280;14852;51.910;8.878;2023-06-22T01:36:50;99997.47;;;21.96;55.97
26823;BME280;14852;51.910;8.878;2023-06-22T01:39:18;100004.19;;;22.00;56.18
26823;BME280;14852;51.910;8.878;2023-06-22T01:41:44;100007.53;;;22.02;56.19
26823;BME280;14852;51.910;8.878;2023-06-22T01:44:10;100002.75;;;22.06;56.28
26823;BME280;14852;51.910;8.878;2023-06-22T01:46:38;100000.94;;;22.07;56.41
26823;BME280;14852;51.910;8.878;2023-06-22T01:49:06;99997.16;;;22.09;56.27
26823;BME280;14852;51.910;8.878;2023-06-22T01:51:33;99997.72;;;22.13;56.19
26823;BME280;14852;51.910;8.878;2023-06-22T01:53:59;99999.06;;;22.17;55.91
26823;BME280;14852;51.910;8.878;2023-06-22T01:56:26;100000.22;;;22.14;56.10
26823;BME280;14852;51.910;8.878;2023-06-22T01:59:11;100003.59;;;22.07;55.97
26823;BME280;14852;51.910;8.878;2023-06-22T02:01:47;100013.81;;;21.92;56.71
26823;BME280;14852;51.910;8.878;2023-06-22T02:04:24;100008.84;;;21.79;56.77
26823;BME280;14852;51.910;8.878;2023-06-22T02:06:56;100009.84;;;21.78;56.74
26823;BME280;14852;51.910;8.878;2023-06-22T02:09:25;100016.78;;;21.79;56.87
26823;BME280;14852;51.910;8.878;2023-06-22T02:11:54;100020.41;;;21.78;57.08
26823;BME280;14852;51.910;8.878;2023-06-22T02:14:23;100016.38;;;21.74;57.12
26823;BME280;14852;51.910;8.878;2023-06-22T02:16:51;100016.28;;;21.66;57.44
26823;BME280;14852;51.910;8.878;2023-06-22T02:19:17;100020.63;;;21.57;57.46
26823;BME280;14852;51.910;8.878;2023-06-22T02:21:47;100019.38;;;21.52;57.96
26823;BME280;14852;51.910;8.878;2023-06-22T02:24:13;100022.03;;;21.52;58.07
26823;BME280;14852;51.910;8.878;2023-06-22T02:26:39;100019.78;;;21.57;57.90
26823;BME280;14852;51.910;8.878;2023-06-22T02:29:08;100020.88;;;21.64;57.90
26823;BME280;14852;51.910;8.878;2023-06-22T02:31:33;100020.28;;;21.70;57.32
26823;BME280;14852;51.910;8.878;2023-06-22T02:33:59;100020.69;;;21.75;57.48
26823;BME280;14852;51.910;8.878;2023-06-22T02:36:26;100028.22;;;21.80;57.46
26823;BME280;14852;51.910;8.878;2023-06-22T02:38:53;100027.19;;;21.81;57.45
26823;BME280;14852;51.910;8.878;2023-06-22T02:41:20;100022.47;;;21.84;57.28
26823;BME280;14852;51.910;8.878;2023-06-22T02:43:46;100028.84;;;21.91;57.66
26823;BME280;14852;51.910;8.878;2023-06-22T02:46:13;100020.59;;;21.94;57.57
26823;BME280;14852;51.910;8.878;2023-06-22T02:48:40;100014.34;;;21.95;57.68
26823;BME280;14852;51.910;8.878;2023-06-22T02:51:07;100019.78;;;21.94;57.23
26823;BME280;14852;51.910;8.878;2023-06-22T02:53:34;100023.69;;;21.90;57.94
26823;BME280;14852;51.910;8.878;2023-06-22T02:56:02;100022.47;;;21.84;57.72
26823;BME280;14852;51.910;8.878;2023-06-22T02:58:32;100017.03;;;21.86;57.82
26823;BME280;14852;51.910;8.878;2023-06-22T03:01:05;100016.16;;;21.95;57.97
26823;BME280;14852;51.910;8.878;2023-06-22T03:03:32;100019.78;;;22.03;57.43
26823;BME280;14852;51.910;8.878;2023-06-22T03:05:58;100014.03;;;22.08;57.60
26823;BME280;14852;51.910;8.878;2023-06-22T03:08:24;100019.59;;;22.05;57.71
26823;BME280;14852;51.910;8.878;2023-06-22T03:10:50;100017.41;;;22.00;57.86
26823;BME280;14852;51.910;8.878;2023-06-22T03:13:15;100011.31;;;21.90;58.25
26823;BME280;14852;51.910;8.878;2023-06-22T03:15:42;100024.28;;;21.84;58.32
26823;BME280;14852;51.910;8.878;2023-06-22T03:18:08;100012.34;;;21.80;58.18
26823;BME280;14852;51.910;8.878;2023-06-22T03:20:33;100016.09;;;21.77;58.28
26823;BME280;14852;51.910;8.878;2023-06-22T03:22:59;100015.13;;;21.78;58.35
26823;BME280;14852;51.910;8.878;2023-06-22T03:25:26;100009.38;;;21.83;58.43
26823;BME280;14852;51.910;8.878;2023-06-22T03:27:55;100014.78;;;21.91;58.31
26823;BME280;14852;51.910;8.878;2023-06-22T03:30:22;100015.75;;;21.99;57.93
26823;BME280;14852;51.910;8.878;2023-06-22T03:32:48;100013.19;;;22.08;57.78
26823;BME280;14852;51.910;8.878;2023-06-22T03:35:13;100006.34;;;22.15;58.12
26823;BME280;14852;51.910;8.878;2023-06-22T03:37:40;100006.72;;;22.20;57.91
26823;BME280;14852;51.910;8.878;2023-06-22T03:40:06;100001.97;;;22.23;57.74
26823;BME280;14852;51.910;8.878;2023-06-22T03:42:35;100007.56;;;22.20;57.67
26823;BME280;14852;51.910;8.878;2023-06-22T03:45:03;100000.59;;;22.19;58.07
26823;BME280;14852;51.910;8.878;2023-06-22T03:47:29;100012.25;;;22.26;58.03
26823;BME280;14852;51.910;8.878;2023-06-22T03:49:57;100005.81;;;22.29;57.80
26823;BME280;14852;51.910;8.878;2023-06-22T03:52:22;100010.69;;;22.33;58.01
26823;BME280;14852;51.910;8.878;2023-06-22T03:54:48;100007.59;;;22.38;57.94
26823;BME280;14852;51.910;8.878;2023-06-22T03:57:14;99999.34;;;22.41;57.98
26823;BME280;14852;51.910;8.878;2023-06-22T03:59:40;100003.34;;;22.45;57.38
26823;BME280;14852;51.910;8.878;2023-06-22T04:02:06;100003.72;;;22.50;57.89
26823;BME280;14852;51.910;8.878;2023-06-22T04:04:31;99998.59;;;22.49;57.53
26823;BME280;14852;51.910;8.878;2023-06-22T04:06:57;100011.00;;;22.48;57.47
26823;BME280;14852;51.910;8.878;2023-06-22T04:09:24;100008.88;;;22.52;57.47
26823;BME280;14852;51.910;8.878;2023-06-22T04:11:49;100010.94;;;22.58;57.38
26823;BME280;14852;51.910;8.878;2023-06-22T04:14:15;100016.28;;;22.66;57.27
26823;BME280;14852;51.910;8.878;2023-06-22T04:16:41;100010.94;;;22.75;57.49
26823;BME280;14852;51.910;8.878;2023-06-22T04:19:06;100022.47;;;22.84;57.29
26823;BME280;14852;51.910;8.878;2023-06-22T04:21:32;100019.75;;;22.94;57.16
26823;BME280;14852;51.910;8.878;2023-06-22T04:23:58;100022.97;;;23.05;56.92
26823;BME280;14852;51.910;8.878;2023-06-22T04:26:24;100028.47;;;23.12;56.63
26823;BME280;14852;51.910;8.878;2023-06-22T04:28:49;100027.81;;;23.10;56.71
26823;BME280;14852;51.910;8.878;2023-06-22T04:31:17;100024.13;;;23.03;57.18
26823;BME280;14852;51.910;8.878;2023-06-22T04:33:45;100017.78;;;22.96;57.66
26823;BME280;14852;51.910;8.878;2023-06-22T04:36:10;100020.41;;;22.96;57.53
26823;BME280;14852;51.910;8.878;2023-06-22T04:38:39;100020.78;;;23.01;57.27
26823;BME280;14852;51.910;8.878;2023-06-22T04:41:05;100018.38;;;23.07;57.16
26823;BME280;14852;51.910;8.878;2023-06-22T04:43:33;100024.56;;;23.16;57.44
26823;BME280;14852;51.910;8.878;2023-06-22T04:45:59;100023.75;;;23.24;56.89
26823;BME280;14852;51.910;8.878;2023-06-22T04:48:29;100022.97;;;23.31;57.06
26823;BME280;14852;51.910;8.878;2023-06-22T04:50:59;100016.69;;;23.32;57.20
26823;BME280;14852;51.910;8.878;2023-06-22T04:53:29;100013.53;;;23.29;57.18
26823;BME280;14852;51.910;8.878;2023-06-22T04:55:55;100004.03;;;23.18;57.50
26823;BME280;14852;51.910;8.878;2023-06-22T04:58:21;100006.94;;;23.07;57.79
26823;BME280;14852;51.910;8.878;2023-06-22T05:00:47;99999.88;;;22.98;57.80
26823;BME280;14852;51.910;8.878;2023-06-22T05:03:13;99993.44;;;23.00;57.69
26823;BME280;14852;51.910;8.878;2023-06-22T05:05:39;99999.13;;;23.05;58.07
26823;BME280;14852;51.910;8.878;2023-06-22T05:08:05;99992.66;;;23.08;57.59
26823;BME280;14852;51.910;8.878;2023-06-22T05:10:33;99990.38;;;23.13;57.51
26823;BME280;14852;51.910;8.878;2023-06-22T05:12:59;99992.94;;;23.23;57.26
26823;BME280;14852;51.910;8.878;2023-06-22T05:15:25;99993.31;;;23.28;57.06
26823;BME280;14852;51.910;8.878;2023-06-22T05:17:53;99996.81;;;23.28;57.04
26823;BME280;14852;51.910;8.878;2023-06-22T05:20:19;99996.66;;;23.30;57.15
26823;BME280;14852;51.910;8.878;2023-06-22T05:22:45;99994.66;;;23.32;56.88
26823;BME280;14852;51.910;8.878;2023-06-22T05:25:11;99994.19;;;23.36;57.26
26823;BME280;14852;51.910;8.878;2023-06-22T05:27:37;99999.69;;;23.43;57.42
26823;BME280;14852;51.910;8.878;2023-06-22T05:30:09;100004.59;;;23.56;56.89
26823;BME280;14852;51.910;8.878;2023-06-22T05:32:36;99991.72;;;23.61;56.78
26823;BME280;14852;51.910;8.878;2023-06-22T05:35:05;99989.41;;;23.66;57.08
26823;BME280;14852;51.910;8.878;2023-06-22T05:37:31;99993.09;;;23.73;56.52
26823;BME280;14852;51.910;8.878;2023-06-22T05:39:57;99996.16;;;23.86;56.82
26823;BME280;14852;51.910;8.878;2023-06-22T05:42:23;99994.03;;;23.98;56.01
26823;BME280;14852;51.910;8.878;2023-06-22T05:44:52;99991.56;;;24.04;56.26
26823;BME280;14852;51.910;8.878;2023-06-22T05:47:18;99995.91;;;24.13;55.91
26823;BME280;14852;51.910;8.878;2023-06-22T05:49:44;99987.31;;;24.19;55.85
26823;BME280;14852;51.910;8.878;2023-06-22T05:52:10;99990.16;;;24.26;55.79
26823;BME280;14852;51.910;8.878;2023-06-22T05:54:37;99984.69;;;24.36;55.55
26823;BME280;14852;51.910;8.878;2023-06-22T05:57:04;99987.03;;;24.47;55.56
26823;BME280;14852;51.910;8.878;2023-06-22T05:59:30;99988.91;;;24.63;55.00
26823;BME280;14852;51.910;8.878;2023-06-22T06:01:56;99997.56;;;24.89;54.22
26823;BME280;14852;51.910;8.878;2023-06-22T06:04:21;99991.09;;;25.00;54.35
26823;BME280;14852;51.910;8.878;2023-06-22T06:06:47;99991.78;;;25.02;54.43
26823;BME280;14852;51.910;8.878;2023-06-22T06:09:14;99983.63;;;25.11;54.40
26823;BME280;14852;51.910;8.878;2023-06-22T06:11:40;99985.75;;;25.24;53.80
26823;BME280;14852;51.910;8.878;2023-06-22T06:14:06;99994.69;;;25.39;53.83
26823;BME280;14852;51.910;8.878;2023-06-22T06:16:32;99990.53;;;25.45;53.71
26823;BME280;14852;51.910;8.878;2023-06-22T06:18:58;99981.03;;;25.50;53.86
26823;BME280;14852;51.910;8.878;2023-06-22T06:21:24;99986.69;;;25.55;53.76
26823;BME280;14852;51.910;8.878;2023-06-22T06:23:49;99987.00;;;25.52;53.73
26823;BME280;14852;51.910;8.878;2023-06-22T06:26:15;99988.69;;;25.53;53.84
26823;BME280;14852;51.910;8.878;2023-06-22T06:28:43;99986.34;;;25.50;53.78
26823;BME280;14852;51.910;8.878;2023-06-22T06:31:09;99984.53;;;25.51;54.46
26823;BME280;14852;51.910;8.878;2023-06-22T06:33:36;99985.50;;;25.58;54.52
26823;BME280;14852;51.910;8.878;2023-06-22T06:36:01;99982.19;;;25.64;54.26
26823;BME280;14852;51.910;8.878;2023-06-22T06:38:30;99988.13;;;25.74;54.18
26823;BME280;14852;51.910;8.878;2023-06-22T06:40:56;99989.63;;;25.77;54.24
26823;BME280;14852;51.910;8.878;2023-06-22T06:43:22;99985.97;;;25.78;54.19
26823;BME280;14852;51.910;8.878;2023-06-22T06:45:49;99992.81;;;25.72;54.63
26823;BME280;14852;51.910;8.878;2023-06-22T06:48:14;99999.66;;;25.67;54.71
26823;BME280;14852;51.910;8.878;2023-06-22T06:50:40;99990.00;;;25.66;54.86
26823;BME280;14852;51.910;8.878;2023-06-22T06:53:06;99998.81;;;25.66;55.00
26823;BME280;14852;51.910;8.878;2023-06-22T06:55:32;99992.66;;;25.66;54.97
26823;BME280;14852;51.910;8.878;2023-06-22T06:58:02;99983.84;;;25.65;55.11
26823;BME280;14852;51.910;8.878;2023-06-22T07:00:28;99981.53;;;25.62;55.03
26823;BME280;14852;51.910;8.878;2023-06-22T07:02:54;99984.50;;;25.59;54.88
26823;BME280;14852;51.910;8.878;2023-06-22T07:05:20;99991.34;;;25.61;55.43
26823;BME280;14852;51.910;8.878;2023-06-22T07:07:45;99992.66;;;25.66;55.29
26823;BME280;14852;51.910;8.878;2023-06-22T07:10:11;99998.81;;;25.66;55.00
26823;BME280;14852;51.910;8.878;2023-06-22T07:12:37;100001.81;;;25.63;55.09
26823;BME280;14852;51.910;8.878;2023-06-22T07:15:08;99989.84;;;25.59;55.30
26823;BME280;14852;51.910;8.878;2023-06-22T07:17:35;99986.00;;;25.61;55.11
26823;BME280;14852;51.910;8.878;2023-06-22T07:20:03;99988.84;;;25.60;55.61
26823;BME280;14852;51.910;8.878;2023-06-22T07:22:34;99996.81;;;25.52;55.62
26823;BME280;14852;51.910;8.878;2023-06-22T07:25:00;99996.34;;;25.48;56.34
26823;BME280;14852;51.910;8.878;2023-06-22T07:27:26;99990.38;;;25.46;55.97
26823;BME280;14852;51.910;8.878;2023-06-22T07:29:52;99989.69;;;25.44;56.70
26823;BME280;14852;51.910;8.878;2023-06-22T07:32:18;99992.03;;;25.47;56.56
26823;BME280;14852;51.910;8.878;2023-06-22T07:34:44;99980.03;;;25.51;56.50
26823;BME280;14852;51.910;8.878;2023-06-22T07:37:09;99987.34;;;25.57;56.42
26823;BME280;14852;51.910;8.878;2023-06-22T07:39:35;99981.53;;;25.62;56.20
26823;BME280;14852;51.910;8.878;2023-06-22T07:42:03;99985.69;;;25.56;56.57
26823;BME280;14852;51.910;8.878;2023-06-22T07:44:29;99982.22;;;25.48;56.33
26823;BME280;14852;51.910;8.878;2023-06-22T07:46:55;99978.91;;;25.46;56.92
26823;BME280;14852;51.910;8.878;2023-06-22T07:49:20;99980.03;;;25.51;56.36
26823;BME280;14852;51.910;8.878;2023-06-22T07:51:46;99982.84;;;25.58;56.31
26823;BME280;14852;51.910;8.878;2023-06-22T07:54:12;99979.69;;;25.63;56.50
26823;BME280;14852;51.910;8.878;2023-06-22T07:56:38;99981.84;;;25.67;56.88
26823;BME280;14852;51.910;8.878;2023-06-22T07:59:03;99976.66;;;25.74;56.41
26823;BME280;14852;51.910;8.878;2023-06-22T08:01:29;99974.81;;;25.82;56.85
26823;BME280;14852;51.910;8.878;2023-06-22T08:03:55;99972.09;;;25.90;56.50
26823;BME280;14852;51.910;8.878;2023-06-22T08:06:21;99964.78;;;25.92;56.36
26823;BME280;14852;51.910;8.878;2023-06-22T08:08:47;99953.97;;;25.86;56.46
26823;BME280;14852;51.910;8.878;2023-06-22T08:11:18;99960.69;;;25.74;56.89
26823;BME280;14852;51.910;8.878;2023-06-22T08:13:44;99963.22;;;25.67;57.03
26823;BME280;14852;51.910;8.878;2023-06-22T08:16:09;99965.75;;;25.60;57.33
26823;BME280;14852;51.910;8.878;2023-06-22T08:18:35;99970.72;;;25.55;57.36
26823;BME280;14852;51.910;8.878;2023-06-22T08:21:01;99966.38;;;25.54;57.18
26823;BME280;14852;51.910;8.878;2023-06-22T08:23:27;99968.06;;;25.55;57.52
26823;BME280;14852;51.910;8.878;2023-06-22T08:25:53;99973.53;;;25.62;57.14
26823;BME280;14852;51.910;8.878;2023-06-22T08:28:18;99965.19;;;25.73;57.14
26823;BME280;14852;51.910;8.878;2023-06-22T08:30:44;99953.31;;;25.92;57.04
26823;BME280;14852;51.910;8.878;2023-06-22T08:33:10;99948.00;;;26.15;56.44
26823;BME280;14852;51.910;8.878;2023-06-22T08:35:36;99952.66;;;26.44;56.15
26823;BME280;14852;51.910;8.878;2023-06-22T08:38:02;99942.97;;;26.74;55.67
26823;BME280;14852;51.910;8.878;2023-06-22T08:40:27;99935.91;;;27.18;54.55
26823;BME280;14852;51.910;8.878;2023-06-22T08:42:54;99919.03;;;27.47;53.73
26823;BME280;14852;51.910;8.878;2023-06-22T08:45:20;99925.16;;;27.56;53.98
26823;BME280;14852;51.910;8.878;2023-06-22T08:47:46;99926.31;;;27.53;53.77
26823;BME280;14852;51.910;8.878;2023-06-22T08:50:12;99927.44;;;27.44;54.84
26823;BME280;14852;51.910;8.878;2023-06-22T08:52:40;99926.63;;;27.44;54.89
26823;BME280;14852;51.910;8.878;2023-06-22T08:55:09;99921.94;;;27.46;54.67
26823;BME280;14852;51.910;8.878;2023-06-22T08:57:35;99916.22;;;27.34;55.04
26823;BME280;14852;51.910;8.878;2023-06-22T09:00:08;99912.44;;;27.28;55.13
26823;BME280;14852;51.910;8.878;2023-06-22T09:02:45;99924.28;;;27.26;54.97
26823;BME280;14852;51.910;8.878;2023-06-22T09:05:11;99914.56;;;27.33;55.33
26823;BME280;14852;51.910;8.878;2023-06-22T09:07:37;99910.66;;;27.50;55.10
26823;BME280;14852;51.910;8.878;2023-06-22T09:10:04;99910.69;;;27.80;54.65
26823;BME280;14852;51.910;8.878;2023-06-22T09:12:33;99910.31;;;28.04;53.73
26823;BME280;14852;51.910;8.878;2023-06-22T09:15:00;99908.28;;;28.06;53.84
26823;BME280;14852;51.910;8.878;2023-06-22T09:17:26;99902.09;;;28.20;53.83
26823;BME280;14852;51.910;8.878;2023-06-22T09:19:52;99898.78;;;28.39;53.08
26823;BME280;14852;51.910;8.878;2023-06-22T09:22:18;99898.56;;;28.62;52.96
26823;BME280;14852;51.910;8.878;2023-06-22T09:24:43;99896.19;;;28.95;52.41
26823;BME280;14852;51.910;8.878;2023-06-22T09:27:09;99892.84;;;29.21;50.93
26823;BME280;14852;51.910;8.878;2023-06-22T09:29:35;99893.91;;;29.27;50.98
26823;BME280;14852;51.910;8.878;2023-06-22T09:32:01;99890.72;;;29.44;51.19
26823;BME280;14852;51.910;8.878;2023-06-22T09:34:27;99880.31;;;29.69;50.65
26823;BME280;14852;51.910;8.878;2023-06-22T09:36:53;99884.56;;;29.98;50.07
26823;BME280;14852;51.910;8.878;2023-06-22T09:39:19;99887.88;;;30.07;49.96
26823;BME280;14852;51.910;8.878;2023-06-22T09:41:44;99889.97;;;30.11;49.88
26823;BME280;14852;51.910;8.878;2023-06-22T09:44:10;99874.28;;;30.15;49.76
26823;BME280;14852;51.910;8.878;2023-06-22T09:46:36;99877.59;;;30.50;49.17
26823;BME280;14852;51.910;8.878;2023-06-22T09:49:02;99872.06;;;30.91;48.81
26823;BME280;14852;51.910;8.878;2023-06-22T09:51:27;99862.94;;;30.99;48.42
26823;BME280;14852;51.910;8.878;2023-06-22T09:53:53;99848.06;;;31.22;47.85
26823;BME280;14852;51.910;8.878;2023-06-22T09:56:19;99844.06;;;31.38;47.65
26823;BME280;14852;51.910;8.878;2023-06-22T09:58:46;99841.53;;;31.50;47.52
26823;BME280;14852;51.910;8.878;2023-06-22T10:01:13;99832.41;;;31.57;47.34
26823;BME280;14852;51.910;8.878;2023-06-22T10:03:41;99843.41;;;31.43;47.17
26823;BME280;14852;51.910;8.878;2023-06-22T10:06:07;99837.88;;;31.31;47.63
26823;BME280;14852;51.910;8.878;2023-06-22T10:08:35;99839.69;;;31.44;47.92
26823;BME280;14852;51.910;8.878;2023-06-22T10:11:01;99833.22;;;31.64;47.96
26823;BME280;14852;51.910;8.878;2023-06-22T10:13:27;99836.34;;;31.55;47.54
26823;BME280;14852;51.910;8.878;2023-06-22T10:15:52;99836.75;;;31.52;47.25
26823;BME280;14852;51.910;8.878;2023-06-22T10:18:18;99849.38;;;31.51;47.15
26823;BME280;14852;51.910;8.878;2023-06-22T10:20:49;99834.91;;;31.52;46.80
26823;BME280;14852;51.910;8.878;2023-06-22T10:23:17;99824.97;;;31.59;47.60
26823;BME280;14852;51.910;8.878;2023-06-22T10:25:43;99823.94;;;31.54;46.40
26823;BME280;14852;51.910;8.878;2023-06-22T10:28:09;99823.13;;;31.53;46.11
26823;BME280;14852;51.910;8.878;2023-06-22T10:30:35;99832.81;;;31.61;45.83
26823;BME280;14852;51.910;8.878;2023-06-22T10:33:00;99831.91;;;31.80;45.72
26823;BME280;14852;51.910;8.878;2023-06-22T10:35:26;99831.00;;;31.93;45.47
26823;BME280;14852;51.910;8.878;2023-06-22T10:37:52;99829.50;;;31.97;45.38
26823;BME280;14852;51.910;8.878;2023-06-22T10:40:20;99817.00;;;32.09;45.16
26823;BME280;14852;51.910;8.878;2023-06-22T10:42:46;99807.69;;;32.18;44.85
26823;BME280;14852;51.910;8.878;2023-06-22T10:45:11;99806.69;;;32.37;44.47
26823;BME280;14852;51.910;8.878;2023-06-22T10:47:37;99793.88;;;32.58;44.24
26823;BME280;14852;51.910;8.878;2023-06-22T10:50:04;99791.91;;;32.90;43.39
26823;BME280;14852;51.910;8.878;2023-06-22T10:52:30;99789.22;;;32.90;42.94
26823;BME280;14852;51.910;8.878;2023-06-22T10:54:56;99777.94;;;32.99;42.66
26823;BME280;14852;51.910;8.878;2023-06-22T10:57:22;99772.56;;;32.99;42.92
26823;BME280;14852;51.910;8.878;2023-06-22T10:59:48;99776.94;;;32.94;42.67
26823;BME280;14852;51.910;8.878;2023-06-22T11:02:14;99780.31;;;32.71;42.80
26823;BME280;14852;51.910;8.878;2023-06-22T11:04:40;99762.28;;;32.53;42.58
26823;BME280;14852;51.910;8.878;2023-06-22T11:07:06;99764.78;;;32.48;43.00
26823;BME280;14852;51.910;8.878;2023-06-22T11:09:31;99760.06;;;32.44;42.85
26823;BME280;14852;51.910;8.878;2023-06-22T11:11:57;99765.22;;;32.45;42.78
26823;BME280;14852;51.910;8.878;2023-06-22T11:14:24;99756.38;;;32.63;42.47
26823;BME280;14852;51.910;8.878;2023-06-22T11:16:51;99750.28;;;32.74;41.99
26823;BME280;14852;51.910;8.878;2023-06-22T11:19:17;99741.50;;;32.79;41.63
26823;BME280;14852;51.910;8.878;2023-06-22T11:21:43;99743.13;;;32.61;41.53
26823;BME280;14852;51.910;8.878;2023-06-22T11:24:09;99735.22;;;32.48;41.61
26823;BME280;14852;51.910;8.878;2023-06-22T11:26:35;99732.59;;;32.42;41.97
26823;BME280;14852;51.910;8.878;2023-06-22T11:29:01;99733.56;;;32.47;41.98
26823;BME280;14852;51.910;8.878;2023-06-22T11:31:26;99728.63;;;32.44;41.55
26823;BME280;14852;51.910;8.878;2023-06-22T11:33:52;99725.00;;;32.32;42.35
26823;BME280;14852;51.910;8.878;2023-06-22T11:36:19;99720.19;;;32.16;42.43
26823;BME280;14852;51.910;8.878;2023-06-22T11:38:44;99725.50;;;31.97;42.66
26823;BME280;14852;51.910;8.878;2023-06-22T11:41:10;99726.50;;;31.78;42.82
26823;BME280;14852;51.910;8.878;2023-06-22T11:43:36;99722.88;;;31.66;42.97
26823;BME280;14852;51.910;8.878;2023-06-22T11:46:03;99723.91;;;31.65;42.97
26823;BME280;14852;51.910;8.878;2023-06-22T11:48:29;99716.47;;;31.67;42.79
26823;BME280;14852;51.910;8.878;2023-06-22T11:50:56;99705.50;;;31.62;43.04
26823;BME280;14852;51.910;8.878;2023-06-22T11:53:24;99706.81;;;31.53;43.08
26823;BME280;14852;51.910;8.878;2023-06-22T11:55:50;99713.91;;;31.41;42.92
26823;BME280;14852;51.910;8.878;2023-06-22T11:58:16;99698.34;;;31.24;43.16
26823;BME280;14852;51.910;8.878;2023-06-22T12:00:42;99692.69;;;31.33;42.92
26823;BME280;14852;51.910;8.878;2023-06-22T12:03:08;99688.06;;;31.46;43.06
26823;BME280;14852;51.910;8.878;2023-06-22T12:05:34;99692.53;;;31.59;42.71
26823;BME280;14852;51.910;8.878;2023-06-22T12:08:00;99688.94;;;31.72;42.53
26823;BME280;14852;51.910;8.878;2023-06-22T12:10:26;99686.63;;;31.75;42.58
26823;BME280;14852;51.910;8.878;2023-06-22T12:12:54;99675.88;;;31.75;42.50
26823;BME280;14852;51.910;8.878;2023-06-22T12:15:20;99677.75;;;31.99;42.67
26823;BME280;14852;51.910;8.878;2023-06-22T12:17:46;99673.41;;;32.23;41.97
26823;BME280;14852;51.910;8.878;2023-06-22T12:20:13;99668.19;;;32.47;41.74
26823;BME280;14852;51.910;8.878;2023-06-22T12:22:40;99675.66;;;32.63;41.46
26823;BME280;14852;51.910;8.878;2023-06-22T12:25:07;99677.22;;;32.34;41.30
26823;BME280;14852;51.910;8.878;2023-06-22T12:27:37;99679.38;;;32.25;41.79
26823;BME280;14852;51.910;8.878;2023-06-22T12:30:05;99674.09;;;32.12;42.14
26823;BME280;14852;51.910;8.878;2023-06-22T12:32:31;99680.75;;;32.10;42.00
26823;BME280;14852;51.910;8.878;2023-06-22T12:34:57;99678.56;;;32.00;42.28
26823;BME280;14852;51.910;8.878;2023-06-22T12:37:23;99692.91;;;31.94;42.92
26823;BME280;14852;51.910;8.878;2023-06-22T12:39:49;99699.75;;;31.90;43.34
26823;BME280;14852;51.910;8.878;2023-06-22T12:42:18;99717.84;;;31.76;42.44
26823;BME280;14852;51.910;8.878;2023-06-22T12:44:43;99718.94;;;31.62;43.16
26823;BME280;14852;51.910;8.878;2023-06-22T12:47:10;99725.00;;;31.51;42.84
26823;BME280;14852;51.910;8.878;2023-06-22T12:49:36;99713.31;;;31.39;43.00
26823;BME280;14852;51.910;8.878;2023-06-22T12:52:02;99715.22;;;31.31;43.67
26823;BME280;14852;51.910;8.878;2023-06-22T12:54:28;99709.09;;;31.18;43.89
26823;BME280;14852;51.910;8.878;2023-06-22T12:56:55;99707.50;;;31.10;44.07
26823;BME280;14852;51.910;8.878;2023-06-22T12:59:21;99704.84;;;30.97;44.31